Time;durP1;ratioP1;P1;durP2;ratioP2;P2;SDS_P1;SDS_P2;PMS_P1;PMS_P2;Temp;Humidity;BMP_temperature;BMP_pressure;BME280_temperature;BME280_humidity;BME280_pressure;Samples;Min_cycle;Max_cycle;Signal;HPM_P1;HPM_P2
2022/09/23 00:01:07;;;;;;;4.77;4.37;;;10.40;79.90;;;;;;5077718;28;20480;-47
2022/09/23 00:03:36;;;;;;;4.83;4.43;;;10.50;79.70;;;;;;5061615;28;20982;-48
2022/09/23 00:06:06;;;;;;;7.70;4.50;;;10.60;79.30;;;;;;5075502;28;20957;-47
2022/09/23 00:08:32;;;;;;;6.10;4.27;;;10.60;79.30;;;;;;5073420;28;20921;-47
2022/09/23 00:11:14;;;;;;;5.50;4.03;;;10.60;79.30;;;;;;5059579;28;20468;-47
2022/09/23 00:13:43;;;;;;;5.87;4.07;;;10.40;79.70;;;;;;5074511;28;20507;-48
2022/09/23 00:16:15;;;;;;;4.70;3.87;;;10.40;79.80;;;;;;5070493;28;20875;-47
2022/09/23 00:18:43;;;;;;;4.73;4.33;;;10.40;79.40;;;;;;5078432;28;20457;-47
2022/09/23 00:21:12;;;;;;;5.20;4.47;;;10.30;79.80;;;;;;5056730;28;20465;-47
2022/09/23 00:23:41;;;;;;;5.47;4.77;;;10.30;79.80;;;;;;5076348;28;20493;-47
2022/09/23 00:26:11;;;;;;;5.10;4.60;;;10.30;80.00;;;;;;5060516;28;20482;-47
2022/09/23 00:28:39;;;;;;;5.40;4.40;;;10.30;79.90;;;;;;5078307;28;20537;-47
2022/09/23 00:31:09;;;;;;;5.83;4.63;;;10.30;79.90;;;;;;5058530;28;20527;-47
2022/09/23 00:33:35;;;;;;;5.17;4.77;;;10.30;79.80;;;;;;5074702;28;20831;-47
2022/09/23 00:36:09;;;;;;;4.70;4.13;;;10.30;79.90;;;;;;5056798;28;20493;-47
2022/09/23 00:38:37;;;;;;;4.87;4.13;;;10.20;79.90;;;;;;5058517;28;20909;-48
2022/09/23 00:41:05;;;;;;;6.13;4.77;;;10.30;79.90;;;;;;5058525;28;20464;-47
2022/09/23 00:43:42;;;;;;;5.00;4.60;;;10.30;79.70;;;;;;5064174;28;20986;-47
2022/09/23 00:46:15;;;;;;;4.93;4.43;;;10.30;79.70;;;;;;5072688;28;20510;-47
2022/09/23 00:48:43;;;;;;;6.53;4.40;;;10.20;79.90;;;;;;5059532;28;20487;-47
2022/09/23 00:51:16;;;;;;;5.33;4.77;;;10.10;80.10;;;;;;5074394;28;20461;-47
2022/09/23 00:53:45;;;;;;;4.70;3.47;;;10.10;80.50;;;;;;5073122;28;20543;-47
2022/09/23 00:56:14;;;;;;;8.57;4.77;;;10.10;80.20;;;;;;5066608;28;20962;-47
2022/09/23 00:58:43;;;;;;;5.90;5.00;;;10.10;80.50;;;;;;5054927;28;20509;-47
2022/09/23 01:01:12;;;;;;;5.80;4.47;;;10.20;80.30;;;;;;5057060;28;20460;-47
2022/09/23 01:03:43;;;;;;;4.63;4.23;;;10.20;80.20;;;;;;5076832;28;20589;-47
2022/09/23 01:06:10;;;;;;;4.53;4.13;;;10.20;80.10;;;;;;5069313;28;20519;-47
2022/09/23 01:08:37;;;;;;;6.50;4.70;;;10.20;80.00;;;;;;5054977;28;20503;-47
2022/09/23 01:11:47;;;;;;;4.17;3.47;;;10.20;80.10;;;;;;5040493;28;20458;-47
2022/09/23 01:14:26;;;;;;;4.83;4.03;;;10.20;80.10;;;;;;5072791;28;20818;-47
2022/09/23 01:17:14;;;;;;;5.03;4.50;;;10.10;80.10;;;;;;5072354;28;20697;-47
2022/09/23 01:20:02;;;;;;;4.57;4.17;;;10.00;80.50;;;;;;5069857;28;20466;-47
2022/09/23 01:22:37;;;;;;;5.00;4.33;;;9.90;80.70;;;;;;5077021;28;20886;-47
2022/09/23 01:25:42;;;;;;;5.50;4.20;;;9.90;81.00;;;;;;5076496;28;20496;-47
2022/09/23 01:28:22;;;;;;;4.67;4.10;;;10.00;80.50;;;;;;5005442;28;20459;-47
2022/09/23 01:31:23;;;;;;;6.17;4.00;;;9.90;80.70;;;;;;4995181;28;20490;-47
2022/09/23 01:34:16;;;;;;;5.00;4.60;;;9.90;80.90;;;;;;5063228;28;21040;-47
2022/09/23 01:36:52;;;;;;;4.57;4.17;;;9.90;80.70;;;;;;5076674;28;20892;-47
2022/09/23 01:39:39;;;;;;;5.23;4.50;;;9.80;80.60;;;;;;5078214;28;20867;-47
2022/09/23 01:42:31;;;;;;;4.80;4.30;;;9.70;81.00;;;;;;5075675;28;20949;-47
2022/09/23 01:45:07;;;;;;;8.23;4.53;;;9.70;81.20;;;;;;5062208;28;20496;-47
2022/09/23 01:47:40;;;;;;;6.50;5.37;;;9.50;81.50;;;;;;5080344;28;20534;-47
2022/09/23 01:53:21;;;;;;;5.60;4.00;;;9.70;81.30;;;;;;5076946;28;20975;-47
2022/09/23 01:55:55;;;;;;;5.00;4.27;;;9.70;81.30;;;;;;5075189;28;20875;-47
2022/09/23 01:58:28;;;;;;;6.83;4.70;;;9.70;80.90;;;;;;5073123;28;20512;-47
2022/09/23 02:01:06;;;;;;;4.53;4.13;;;9.70;81.00;;;;;;5076117;28;20507;-47
2022/09/23 02:03:42;;;;;;;4.73;4.30;;;9.70;80.90;;;;;;5079880;28;20480;-47
2022/09/23 02:06:09;;;;;;;6.73;4.63;;;9.70;80.80;;;;;;5043242;28;21003;-47
2022/09/23 02:08:46;;;;;;;6.20;4.43;;;9.70;80.80;;;;;;5071029;28;20555;-47
2022/09/23 02:11:14;;;;;;;9.60;5.27;;;9.60;81.00;;;;;;5073219;28;20794;-47
2022/09/23 02:13:44;;;;;;;4.83;4.40;;;9.70;81.30;;;;;;5061934;28;20456;-47
2022/09/23 02:16:31;;;;;;;6.40;5.03;;;9.60;81.20;;;;;;5074302;28;20499;-47
2022/09/23 02:19:07;;;;;;;4.30;3.90;;;9.70;80.90;;;;;;5063633;28;20561;-47
2022/09/23 02:21:39;;;;;;;5.00;4.50;;;9.70;80.50;;;;;;5067385;28;20456;-47
2022/09/23 02:24:20;;;;;;;5.07;4.17;;;9.70;80.60;;;;;;5044515;28;20485;-47
2022/09/23 02:27:17;;;;;;;4.93;4.43;;;9.60;80.50;;;;;;5074600;28;20495;-46
2022/09/23 02:29:52;;;;;;;5.10;4.60;;;9.50;81.00;;;;;;5078870;28;20493;-45
2022/09/23 02:32:27;;;;;;;4.83;4.23;;;9.50;81.20;;;;;;5083122;28;20558;-45
2022/09/23 02:35:31;;;;;;;5.10;4.10;;;9.60;80.80;;;;;;5080282;28;20886;-46
2022/09/23 02:38:17;;;;;;;4.50;4.10;;;9.60;80.70;;;;;;5063967;28;20456;-45
2022/09/23 02:40:58;;;;;;;5.30;4.80;;;9.50;81.20;;;;;;5068234;28;20507;-46
2022/09/23 02:43:38;;;;;;;5.00;4.50;;;9.50;81.20;;;;;;5080945;28;20539;-45
2022/09/23 02:46:06;;;;;;;5.23;4.17;;;9.50;81.30;;;;;;5081836;28;20544;-45
2022/09/23 02:48:42;;;;;;;5.47;4.63;;;9.50;81.40;;;;;;5083905;28;20919;-45
2022/09/23 02:51:09;;;;;;;5.17;4.77;;;9.50;81.50;;;;;;5081220;28;20487;-45
2022/09/23 02:53:37;;;;;;;4.73;4.20;;;9.40;81.90;;;;;;5066562;28;20452;-45
2022/09/23 02:56:19;;;;;;;5.60;4.43;;;9.50;81.40;;;;;;5079680;28;21036;-45
2022/09/23 02:58:52;;;;;;;5.30;4.80;;;9.50;81.20;;;;;;5081134;28;20527;-46
2022/09/23 03:01:46;;;;;;;5.63;4.30;;;9.50;81.70;;;;;;5082997;28;20460;-45
2022/09/23 03:04:21;;;;;;;6.40;4.70;;;9.40;81.90;;;;;;5080443;28;20484;-45
2022/09/23 03:06:57;;;;;;;5.20;4.70;;;9.40;81.70;;;;;;5078937;28;20883;-45
2022/09/23 03:09:57;;;;;;;5.30;4.80;;;9.50;81.50;;;;;;5081190;28;20500;-45
2022/09/23 03:12:34;;;;;;;5.67;5.00;;;9.50;81.50;;;;;;5059625;28;20918;-46
2022/09/23 03:15:17;;;;;;;4.90;4.50;;;9.40;81.80;;;;;;5082444;28;20454;-45
2022/09/23 03:18:10;;;;;;;5.23;4.73;;;9.50;81.50;;;;;;5064184;28;20496;-45
2022/09/23 03:20:48;;;;;;;5.07;4.57;;;9.50;81.60;;;;;;5085405;28;20496;-45
2022/09/23 03:23:24;;;;;;;8.43;5.13;;;9.40;81.50;;;;;;5080106;28;20507;-45
2022/09/23 03:25:54;;;;;;;5.57;4.93;;;9.40;81.50;;;;;;5050179;28;20485;-45
2022/09/23 03:28:27;;;;;;;5.10;4.57;;;9.40;81.60;;;;;;5079959;28;20457;-45
2022/09/23 03:31:03;;;;;;;6.73;4.53;;;9.40;81.90;;;;;;5084785;28;20471;-45
2022/09/23 03:33:31;;;;;;;6.30;5.37;;;9.40;81.70;;;;;;5083910;28;20465;-45
2022/09/23 03:39:01;;;;;;;5.60;5.10;;;9.40;81.50;;;;;;5081682;28;20458;-45
2022/09/23 03:41:33;;;;;;;5.27;4.77;;;9.40;81.40;;;;;;5081709;28;20461;-45
2022/09/23 03:44:01;;;;;;;6.20;5.47;;;9.50;81.30;;;;;;5064529;28;20465;-46
2022/09/23 03:46:29;;;;;;;5.50;5.00;;;9.40;81.40;;;;;;5083971;28;20553;-45
2022/09/23 03:49:05;;;;;;;5.27;4.77;;;9.40;81.50;;;;;;5082467;28;20456;-45
2022/09/23 03:51:31;;;;;;;5.83;4.67;;;9.40;81.40;;;;;;5079798;28;21267;-45
2022/09/23 03:53:58;;;;;;;7.90;5.80;;;9.40;81.60;;;;;;5069921;28;20627;-46
2022/09/23 03:56:25;;;;;;;6.13;5.10;;;9.40;81.60;;;;;;5080376;28;20462;-46
2022/09/23 03:58:51;;;;;;;7.17;5.90;;;9.30;82.10;;;;;;5068472;28;20509;-45
2022/09/23 04:01:18;;;;;;;6.27;5.73;;;9.30;81.80;;;;;;5078383;28;20458;-45
2022/09/23 04:03:45;;;;;;;5.00;4.50;;;9.30;81.60;;;;;;5084000;28;20543;-45
2022/09/23 04:06:12;;;;;;;8.63;5.50;;;9.10;82.20;;;;;;5061609;28;20573;-45
2022/09/23 04:08:38;;;;;;;6.73;5.00;;;9.20;82.50;;;;;;5082211;28;20500;-45
2022/09/23 04:11:05;;;;;;;13.10;7.30;;;9.10;82.30;;;;;;5062903;28;20462;-45
2022/09/23 04:13:32;;;;;;;30.97;16.00;;;9.20;82.60;;;;;;5063237;28;20882;-45
2022/09/23 04:15:59;;;;;;;18.10;12.33;;;9.20;82.40;;;;;;5078743;28;20515;-45
2022/09/23 04:18:26;;;;;;;9.23;7.93;;;9.10;82.30;;;;;;5079049;28;20469;-45
2022/09/23 04:20:58;;;;;;;6.07;5.33;;;9.10;82.20;;;;;;5080702;28;20465;-45
2022/09/23 04:23:25;;;;;;;8.93;5.93;;;9.10;82.30;;;;;;5080175;28;20465;-45
2022/09/23 04:25:53;;;;;;;6.30;5.30;;;9.00;82.10;;;;;;5064958;28;21112;-45
2022/09/23 04:28:20;;;;;;;9.23;6.97;;;9.00;82.20;;;;;;5083476;28;20858;-45
2022/09/23 04:30:47;;;;;;;6.30;5.70;;;8.90;82.30;;;;;;5081873;28;20499;-45
2022/09/23 04:33:15;;;;;;;6.30;5.70;;;8.80;82.80;;;;;;5065665;28;21000;-46
2022/09/23 04:35:42;;;;;;;8.60;7.80;;;8.60;83.50;;;;;;5069931;28;20453;-46
2022/09/23 04:38:11;;;;;;;6.97;6.07;;;8.80;83.50;;;;;;5068686;28;20505;-45
2022/09/23 04:40:37;;;;;;;6.53;5.90;;;8.90;83.10;;;;;;5077332;28;20489;-46
2022/09/23 04:43:04;;;;;;;6.60;5.47;;;9.00;82.70;;;;;;5077599;28;20921;-45
2022/09/23 04:45:35;;;;;;;7.57;5.53;;;9.00;82.80;;;;;;5081557;28;20496;-45
2022/09/23 04:48:02;;;;;;;5.77;5.20;;;9.00;82.80;;;;;;5080656;28;20496;-45
2022/09/23 04:50:28;;;;;;;5.90;5.40;;;9.00;83.00;;;;;;5081327;28;20496;-45
2022/09/23 04:52:55;;;;;;;8.77;6.50;;;9.00;82.80;;;;;;5080880;28;20453;-45
2022/09/23 04:55:22;;;;;;;6.00;5.40;;;9.10;82.70;;;;;;5079286;28;20460;-45
2022/09/23 04:57:48;;;;;;;5.30;4.90;;;9.20;82.40;;;;;;5080765;28;20541;-45
2022/09/23 05:00:15;;;;;;;5.27;4.80;;;9.20;82.30;;;;;;5080215;28;20523;-45
2022/09/23 05:02:44;;;;;;;7.10;6.13;;;9.30;82.20;;;;;;5071987;28;20457;-45
2022/09/23 05:05:12;;;;;;;7.73;6.10;;;9.30;82.10;;;;;;5055771;28;20530;-45
2022/09/23 05:07:39;;;;;;;5.93;5.30;;;9.30;82.10;;;;;;5059194;28;20568;-45
2022/09/23 05:10:06;;;;;;;6.03;5.43;;;9.30;82.20;;;;;;5076732;28;20507;-45
2022/09/23 05:12:33;;;;;;;5.90;5.30;;;9.30;82.30;;;;;;5062605;28;20522;-45
2022/09/23 05:15:00;;;;;;;8.13;6.80;;;9.40;82.00;;;;;;5081483;28;20496;-45
2022/09/23 05:17:28;;;;;;;7.97;6.23;;;9.40;82.20;;;;;;5074128;28;20537;-45
2022/09/23 05:19:56;;;;;;;7.90;5.73;;;9.40;82.30;;;;;;5055922;28;20473;-45
2022/09/23 05:22:25;;;;;;;6.30;5.80;;;9.40;82.20;;;;;;5059788;28;21148;-45
2022/09/23 05:24:52;;;;;;;4.90;4.50;;;9.30;82.70;;;;;;5078790;28;20568;-46
2022/09/23 05:27:19;;;;;;;6.80;5.30;;;9.20;83.10;;;;;;5071011;28;21602;-45
2022/09/23 05:29:48;;;;;;;6.97;5.87;;;9.10;83.00;;;;;;5081342;28;20497;-45
2022/09/23 05:32:14;;;;;;;8.40;5.10;;;9.00;83.40;;;;;;5078817;28;20461;-45
2022/09/23 05:34:41;;;;;;;7.27;6.00;;;9.10;83.60;;;;;;5062734;28;20512;-45
2022/09/23 05:37:08;;;;;;;7.27;6.43;;;9.10;83.40;;;;;;5079836;28;20489;-45
2022/09/23 05:39:35;;;;;;;6.90;6.20;;;9.20;83.40;;;;;;5074541;28;21020;-45
2022/09/23 05:42:02;;;;;;;12.73;6.53;;;9.30;83.10;;;;;;5076612;28;20490;-45
2022/09/23 05:44:29;;;;;;;8.20;6.37;;;9.30;83.10;;;;;;5057113;28;20465;-45
2022/09/23 05:46:56;;;;;;;6.40;5.80;;;9.30;83.20;;;;;;5064608;28;20493;-45
2022/09/23 05:49:23;;;;;;;6.37;5.30;;;9.30;83.40;;;;;;5080369;28;20537;-45
2022/09/23 05:52:08;;;;;;;6.57;5.97;;;9.30;83.60;;;;;;5068208;28;20820;-45
2022/09/23 05:54:36;;;;;;;7.80;6.43;;;9.30;83.80;;;;;;5060079;28;20514;-45
2022/09/23 05:57:03;;;;;;;10.73;7.20;;;9.40;83.40;;;;;;5061339;28;20501;-45
2022/09/23 05:59:31;;;;;;;7.00;6.40;;;9.40;83.70;;;;;;5079811;28;20576;-45
2022/09/23 06:01:57;;;;;;;8.63;5.90;;;9.40;83.70;;;;;;5079277;28;20506;-45
2022/09/23 06:04:24;;;;;;;7.30;6.60;;;9.40;83.90;;;;;;5063551;28;20534;-45
2022/09/23 06:06:51;;;;;;;8.33;6.70;;;9.50;83.90;;;;;;5081177;28;20524;-45
2022/09/23 06:09:18;;;;;;;7.40;6.17;;;9.50;83.90;;;;;;5079347;28;20614;-45
2022/09/23 06:11:45;;;;;;;9.13;8.23;;;9.60;83.70;;;;;;5081170;28;20453;-45
2022/09/23 06:14:13;;;;;;;9.33;7.97;;;9.70;83.50;;;;;;5078783;28;20546;-45
2022/09/23 06:16:40;;;;;;;10.53;7.93;;;9.70;83.20;;;;;;5076086;28;20464;-45
2022/09/23 06:19:06;;;;;;;25.57;16.03;;;9.70;83.20;;;;;;5069763;28;20544;-45
2022/09/23 06:21:35;;;;;;;33.77;17.67;;;9.70;83.30;;;;;;5079861;28;20933;-45
2022/09/23 06:24:03;;;;;;;24.50;16.30;;;9.70;83.50;;;;;;5082764;28;20519;-45
2022/09/23 06:26:32;;;;;;;19.13;14.43;;;9.80;83.30;;;;;;5080832;28;20489;-45
2022/09/23 06:29:01;;;;;;;16.53;11.53;;;9.80;83.20;;;;;;5078455;28;20456;-45
2022/09/23 06:31:28;;;;;;;19.50;11.93;;;9.70;83.70;;;;;;5082170;28;20492;-45
2022/09/23 06:33:55;;;;;;;23.60;12.83;;;9.80;83.70;;;;;;5088334;28;20938;-45
2022/09/23 06:36:36;;;;;;;13.90;11.60;;;9.90;83.70;;;;;;5083128;28;20449;-45
2022/09/23 06:39:10;;;;;;;14.00;9.13;;;9.90;83.70;;;;;;5084290;28;20881;-45
2022/09/23 06:41:38;;;;;;;7.87;7.00;;;9.90;83.60;;;;;;5070325;28;20515;-45
2022/09/23 06:44:04;;;;;;;8.60;7.67;;;9.90;83.50;;;;;;5085997;28;20523;-45
2022/09/23 06:46:31;;;;;;;8.17;6.93;;;10.00;83.40;;;;;;5085271;28;20494;-45
2022/09/23 06:48:58;;;;;;;11.73;6.60;;;10.00;83.20;;;;;;5083399;28;20452;-45
2022/09/23 06:51:25;;;;;;;7.73;6.50;;;10.00;83.00;;;;;;5068156;28;20507;-45
2022/09/23 06:53:51;;;;;;;7.93;6.83;;;10.10;83.20;;;;;;5064985;28;20477;-45
2022/09/23 06:56:20;;;;;;;7.83;6.80;;;10.10;83.10;;;;;;5085079;28;20465;-45
2022/09/23 06:58:48;;;;;;;7.10;6.50;;;10.10;83.00;;;;;;5067422;28;20562;-45
2022/09/23 07:01:16;;;;;;;7.17;6.40;;;10.20;83.00;;;;;;5080488;28;20461;-45
2022/09/23 07:03:45;;;;;;;9.93;7.30;;;10.20;83.10;;;;;;5078522;28;20543;-45
2022/09/23 07:06:11;;;;;;;9.20;6.50;;;10.20;83.00;;;;;;5066303;28;20481;-45
2022/09/23 07:08:45;;;;;;;9.40;8.07;;;10.20;82.90;;;;;;5081468;28;20453;-45
2022/09/23 07:11:14;;;;;;;10.13;8.47;;;10.30;82.60;;;;;;5083387;28;20532;-45
2022/09/23 07:13:41;;;;;;;11.63;10.00;;;10.30;82.90;;;;;;5080914;28;20559;-45
2022/09/23 07:16:09;;;;;;;13.00;10.60;;;10.30;83.00;;;;;;5079914;28;20456;-45
2022/09/23 07:18:36;;;;;;;14.97;9.97;;;10.30;83.20;;;;;;5081368;28;20988;-45
2022/09/23 07:21:15;;;;;;;11.57;10.40;;;10.40;83.50;;;;;;5063464;28;20895;-45
2022/09/23 07:23:44;;;;;;;13.47;9.87;;;10.50;83.30;;;;;;5064751;28;20465;-45
2022/09/23 07:26:12;;;;;;;14.00;10.10;;;10.50;83.30;;;;;;5070338;28;20835;-45
2022/09/23 07:28:39;;;;;;;15.50;10.30;;;10.60;83.40;;;;;;5076412;28;20457;-45
2022/09/23 07:31:09;;;;;;;9.60;8.60;;;10.60;83.50;;;;;;5080822;28;20486;-45
2022/09/23 07:33:37;;;;;;;10.67;8.67;;;10.50;83.50;;;;;;5067674;28;20460;-45
2022/09/23 07:36:07;;;;;;;9.07;8.13;;;10.60;83.50;;;;;;5082234;28;20471;-45
2022/09/23 07:38:34;;;;;;;11.20;8.97;;;10.60;83.50;;;;;;5075682;28;20471;-45
2022/09/23 07:41:04;;;;;;;9.07;7.93;;;10.70;83.60;;;;;;5081240;28;20523;-45
2022/09/23 07:43:33;;;;;;;11.90;9.50;;;10.70;83.60;;;;;;5060824;28;20469;-45
2022/09/23 07:46:05;;;;;;;11.87;9.00;;;10.80;83.40;;;;;;5075154;28;20848;-45
2022/09/23 07:48:32;;;;;;;9.00;8.10;;;10.80;83.20;;;;;;5069970;28;20480;-45
2022/09/23 07:51:06;;;;;;;7.70;6.90;;;10.90;82.50;;;;;;5079572;28;20544;-45
2022/09/23 07:53:33;;;;;;;8.17;7.37;;;11.00;82.20;;;;;;5076438;28;20511;-45
2022/09/23 07:55:59;;;;;;;9.60;7.10;;;11.00;80.50;;;;;;5078151;28;20465;-45
2022/09/23 07:58:26;;;;;;;6.60;6.00;;;11.10;80.20;;;;;;5056545;28;21075;-45
2022/09/23 08:00:53;;;;;;;8.57;7.73;;;11.10;79.20;;;;;;5066870;28;20453;-45
2022/09/23 08:03:20;;;;;;;8.20;7.30;;;11.20;79.00;;;;;;5068800;28;20466;-45
2022/09/23 08:05:47;;;;;;;9.77;7.80;;;11.30;79.00;;;;;;5075131;28;20541;-45
2022/09/23 08:08:13;;;;;;;10.77;7.80;;;11.40;79.10;;;;;;5060899;28;20514;-45
2022/09/23 08:10:40;;;;;;;7.83;6.70;;;11.50;79.00;;;;;;5064406;28;20890;-45
2022/09/23 08:13:07;;;;;;;7.27;6.60;;;11.60;78.30;;;;;;5073296;28;20457;-45
2022/09/23 08:15:33;;;;;;;7.57;6.57;;;11.70;78.10;;;;;;5068180;28;20503;-45
2022/09/23 08:18:02;;;;;;;8.83;6.93;;;11.80;78.10;;;;;;5063297;28;20460;-45
2022/09/23 08:20:44;;;;;;;8.10;7.30;;;11.80;78.10;;;;;;5074481;28;20979;-45
2022/09/23 08:23:15;;;;;;;8.03;6.97;;;11.90;78.00;;;;;;5059087;28;20456;-45
2022/09/23 08:25:45;;;;;;;8.20;6.70;;;12.00;77.60;;;;;;5080834;28;20846;-45
2022/09/23 08:28:17;;;;;;;8.30;7.40;;;12.10;77.40;;;;;;5078040;28;20480;-45
2022/09/23 08:30:47;;;;;;;9.97;7.27;;;12.10;77.30;;;;;;5080997;28;20903;-45
2022/09/23 08:33:14;;;;;;;8.80;7.10;;;12.20;77.00;;;;;;5078210;28;20510;-45
2022/09/23 08:35:48;;;;;;;7.63;6.93;;;12.30;76.90;;;;;;5058109;28;20475;-45
2022/09/23 08:38:15;;;;;;;9.97;8.17;;;12.40;76.80;;;;;;5067607;28;20487;-45
2022/09/23 08:40:46;;;;;;;8.70;6.73;;;12.40;76.90;;;;;;5083572;28;20941;-45
2022/09/23 08:43:34;;;;;;;8.40;6.63;;;12.50;76.40;;;;;;5083152;28;20546;-45
2022/09/23 08:46:04;;;;;;;10.83;7.53;;;12.60;76.10;;;;;;5068309;28;20497;-45
2022/09/23 08:48:38;;;;;;;7.00;6.30;;;12.60;75.90;;;;;;5064119;28;20487;-45
2022/09/23 08:51:11;;;;;;;9.23;7.40;;;12.70;75.60;;;;;;5080605;28;20468;-45
2022/09/23 08:53:38;;;;;;;9.73;7.57;;;12.80;75.50;;;;;;5078041;28;20972;-45
2022/09/23 08:56:12;;;;;;;10.87;7.50;;;12.80;74.10;;;;;;5065413;28;20872;-45
2022/09/23 08:58:52;;;;;;;7.53;6.77;;;12.80;74.30;;;;;;5062257;28;20489;-45
2022/09/23 09:01:18;;;;;;;7.87;6.37;;;12.80;74.10;;;;;;5058055;28;20485;-45
2022/09/23 09:03:52;;;;;;;7.93;6.37;;;12.90;73.90;;;;;;5063357;28;20455;-45
2022/09/23 09:06:59;;;;;;;7.00;6.30;;;12.90;73.90;;;;;;5079852;28;20474;-45
2022/09/23 09:09:49;;;;;;;7.27;6.67;;;13.00;73.70;;;;;;5063619;28;20448;-45
2022/09/23 09:12:21;;;;;;;8.90;7.20;;;13.10;73.40;;;;;;5065602;28;20552;-45
2022/09/23 09:15:01;;;;;;;7.40;6.70;;;13.10;73.20;;;;;;5082723;28;20563;-45
2022/09/23 09:17:38;;;;;;;7.83;7.07;;;13.20;73.00;;;;;;5086382;28;20882;-45
2022/09/23 09:20:17;;;;;;;8.80;6.57;;;13.20;73.00;;;;;;5070652;28;20457;-45
2022/09/23 09:23:09;;;;;;;7.30;6.47;;;13.30;73.00;;;;;;5082265;28;21160;-45
2022/09/23 09:25:48;;;;;;;6.50;5.90;;;13.30;72.90;;;;;;5075495;28;20940;-45
2022/09/23 09:28:26;;;;;;;9.30;7.23;;;13.40;72.80;;;;;;5063058;28;20469;-45
2022/09/23 09:30:58;;;;;;;6.23;5.63;;;13.40;71.70;;;;;;5079427;28;20449;-45
2022/09/23 09:33:43;;;;;;;6.60;6.00;;;13.40;71.60;;;;;;5066867;28;20457;-45
2022/09/23 09:36:38;;;;;;;6.80;6.10;;;13.50;71.80;;;;;;5084827;28;20468;-45
2022/09/23 09:39:08;;;;;;;8.30;7.17;;;13.60;72.00;;;;;;5082792;28;20514;-45
2022/09/23 09:41:34;;;;;;;8.30;7.37;;;13.60;71.70;;;;;;5048390;28;20549;-45
2022/09/23 09:44:16;;;;;;;8.20;7.20;;;13.60;71.30;;;;;;5067714;28;20456;-45
2022/09/23 09:47:01;;;;;;;7.20;6.07;;;13.70;70.80;;;;;;5073285;28;20852;-45
2022/09/23 09:49:34;;;;;;;7.47;6.77;;;13.80;70.80;;;;;;5089492;28;20453;-45
2022/09/23 09:52:38;;;;;;;7.23;6.53;;;13.90;70.20;;;;;;5087374;28;20821;-45
2022/09/23 09:55:11;;;;;;;7.47;6.50;;;13.90;70.10;;;;;;5045501;28;20469;-45
2022/09/23 09:57:51;;;;;;;9.90;6.63;;;14.00;70.20;;;;;;5087163;28;20797;-45
2022/09/23 10:00:35;;;;;;;6.60;5.97;;;14.10;70.30;;;;;;5067307;28;20449;-45
2022/09/23 10:03:38;;;;;;;6.30;5.63;;;14.20;69.90;;;;;;5071667;28;20464;-45
2022/09/23 10:06:29;;;;;;;7.53;6.83;;;14.40;69.70;;;;;;5064002;28;20485;-45
2022/09/23 10:09:11;;;;;;;6.53;5.90;;;14.50;69.50;;;;;;5062622;28;20469;-45
2022/09/23 10:11:39;;;;;;;6.70;6.00;;;14.60;69.60;;;;;;5077470;28;20522;-45
2022/09/23 10:14:16;;;;;;;7.10;6.40;;;14.70;68.50;;;;;;5061748;28;20457;-45
2022/09/23 10:16:45;;;;;;;7.30;6.60;;;14.80;67.50;;;;;;5069398;28;21024;-45
2022/09/23 10:19:38;;;;;;;7.50;6.80;;;15.00;67.80;;;;;;5081943;28;20837;-45
2022/09/23 10:22:28;;;;;;;7.53;6.83;;;15.20;68.00;;;;;;5074480;28;20512;-45
2022/09/23 10:25:04;;;;;;;6.00;5.50;;;15.30;67.70;;;;;;5067434;28;20460;-45
2022/09/23 10:27:34;;;;;;;7.27;6.57;;;15.50;67.10;;;;;;5078032;28;21117;-46
2022/09/23 10:30:05;;;;;;;7.27;6.67;;;15.70;66.10;;;;;;5053206;28;20543;-46
2022/09/23 10:32:42;;;;;;;7.10;5.70;;;15.70;64.80;;;;;;5067777;28;20879;-45
2022/09/23 10:35:10;;;;;;;6.53;5.90;;;15.90;65.10;;;;;;5064398;28;20513;-45
2022/09/23 10:37:48;;;;;;;8.87;5.90;;;16.10;64.30;;;;;;5079343;28;20619;-46
2022/09/23 10:47:08;;;;;;;5.40;4.90;;;16.30;63.90;;;;;;5081095;28;20481;-46
2022/09/23 10:49:53;;;;;;;5.87;5.27;;;16.20;64.30;;;;;;4995479;28;20461;-45
2022/09/23 10:52:54;;;;;;;5.20;4.80;;;16.20;64.30;;;;;;5073412;28;20465;-45
2022/09/23 10:55:38;;;;;;;6.50;5.77;;;16.10;64.50;;;;;;5064181;28;20489;-45
2022/09/23 10:58:18;;;;;;;7.03;5.60;;;16.10;64.40;;;;;;5080358;28;20485;-45
2022/09/23 11:00:59;;;;;;;5.83;4.97;;;16.00;64.30;;;;;;5074210;28;20518;-45
2022/09/23 11:03:58;;;;;;;7.20;5.93;;;16.00;64.90;;;;;;5076423;28;20831;-45
2022/09/23 11:06:57;;;;;;;7.47;5.60;;;16.00;64.40;;;;;;5062099;28;20485;-45
2022/09/23 11:09:27;;;;;;;5.87;5.27;;;16.00;65.20;;;;;;5081307;28;20514;-45
2022/09/23 11:11:53;;;;;;;7.83;5.80;;;15.90;64.60;;;;;;5077484;28;20453;-45
2022/09/23 11:14:44;;;;;;;5.33;4.70;;;15.90;65.00;;;;;;5075563;28;20510;-45
2022/09/23 11:17:19;;;;;;;8.80;5.50;;;16.00;65.30;;;;;;5077556;28;20875;-45
2022/09/23 11:19:55;;;;;;;5.80;5.10;;;16.00;65.50;;;;;;5061575;28;20537;-45
2022/09/23 11:22:59;;;;;;;5.73;5.23;;;15.90;64.80;;;;;;5057284;28;20458;-45
2022/09/23 11:25:26;;;;;;;6.90;5.80;;;15.80;64.90;;;;;;5080922;28;20460;-45
2022/09/23 11:28:22;;;;;;;7.90;5.37;;;15.90;65.20;;;;;;5076292;28;20525;-46
2022/09/23 11:31:20;;;;;;;7.90;5.03;;;15.80;65.70;;;;;;5076390;28;20451;-45
2022/09/23 11:33:51;;;;;;;5.00;4.50;;;15.80;66.00;;;;;;5076766;28;20457;-45
2022/09/23 11:36:36;;;;;;;5.20;4.47;;;15.80;66.30;;;;;;5073062;28;20815;-45
2022/09/23 11:39:14;;;;;;;4.80;4.40;;;15.80;66.50;;;;;;5085529;28;20474;-45
2022/09/23 11:41:42;;;;;;;4.50;4.00;;;15.70;66.80;;;;;;5083544;28;20526;-45
2022/09/23 11:44:20;;;;;;;9.30;5.47;;;15.70;66.70;;;;;;5081681;28;20664;-46
2022/09/23 11:47:07;;;;;;;4.40;4.00;;;15.70;66.00;;;;;;5076793;28;20483;-46
2022/09/23 11:49:48;;;;;;;6.90;5.03;;;15.70;65.60;;;;;;5077875;28;20456;-46
2022/09/23 11:52:26;;;;;;;5.93;5.43;;;15.70;65.90;;;;;;5077964;28;20458;-45
2022/09/23 11:55:02;;;;;;;5.47;4.60;;;15.80;66.10;;;;;;5073420;28;20509;-45
2022/09/23 11:57:41;;;;;;;6.90;5.10;;;15.80;66.30;;;;;;5073410;28;20493;-45
2022/09/23 12:00:21;;;;;;;4.63;4.23;;;15.80;66.50;;;;;;5057143;28;20472;-45
2022/09/23 12:02:56;;;;;;;5.40;4.90;;;15.80;67.20;;;;;;5076230;28;20570;-45
2022/09/23 12:05:57;;;;;;;7.13;5.87;;;15.80;67.20;;;;;;5071182;28;20472;-45
2022/09/23 12:08:35;;;;;;;7.13;4.70;;;15.90;67.10;;;;;;5073117;28;20457;-45
2022/09/23 12:11:30;;;;;;;4.97;4.47;;;15.80;67.10;;;;;;5063160;28;20483;-46
2022/09/23 12:14:03;;;;;;;5.27;4.63;;;15.90;67.10;;;;;;5074301;28;20471;-46
2022/09/23 12:16:58;;;;;;;5.40;3.90;;;15.90;67.10;;;;;;5077389;28;21053;-46
2022/09/23 12:19:56;;;;;;;4.20;3.80;;;15.80;67.10;;;;;;5055946;28;20839;-47
2022/09/23 12:22:41;;;;;;;4.87;3.77;;;15.90;67.00;;;;;;5076787;28;20951;-47
2022/09/23 12:25:22;;;;;;;7.03;4.03;;;15.90;66.40;;;;;;5067492;28;20519;-46
2022/09/23 12:27:51;;;;;;;7.10;3.70;;;15.90;66.40;;;;;;5069124;28;20493;-46
2022/09/23 12:30:21;;;;;;;4.73;3.90;;;15.90;66.30;;;;;;5076202;28;20515;-47
2022/09/23 12:32:48;;;;;;;4.63;4.23;;;16.00;66.50;;;;;;5056675;28;20538;-47
2022/09/23 12:35:32;;;;;;;4.90;4.27;;;16.00;65.30;;;;;;5073916;28;20577;-47
2022/09/23 12:38:00;;;;;;;4.67;4.27;;;16.20;65.30;;;;;;5061858;28;22259;-47
2022/09/23 12:40:34;;;;;;;5.33;4.83;;;16.20;63.90;;;;;;5061640;28;20490;-47
2022/09/23 12:43:01;;;;;;;4.33;3.60;;;16.30;64.10;;;;;;5060933;28;20511;-46
2022/09/23 12:45:31;;;;;;;4.23;3.93;;;16.20;64.80;;;;;;5077937;28;20962;-47
2022/09/23 12:47:59;;;;;;;9.57;4.83;;;16.20;65.20;;;;;;5073038;28;21065;-47
2022/09/23 12:50:53;;;;;;;5.70;4.50;;;16.10;65.30;;;;;;5067698;28;20539;-47
2022/09/23 12:53:32;;;;;;;5.60;4.40;;;16.10;65.60;;;;;;5072165;28;20480;-47
2022/09/23 12:56:12;;;;;;;4.00;3.63;;;16.20;65.70;;;;;;5077243;28;20464;-47
2022/09/23 12:58:42;;;;;;;4.27;3.87;;;16.20;65.70;;;;;;5050787;28;20485;-47
2022/09/23 13:01:15;;;;;;;5.33;4.20;;;16.20;66.00;;;;;;5066869;28;20889;-47
2022/09/23 13:06:57;;;;;;;4.70;4.30;;;16.20;66.10;;;;;;5069715;28;20485;-47
2022/09/23 13:09:29;;;;;;;4.63;3.93;;;16.20;66.10;;;;;;5072438;28;20869;-47
2022/09/23 13:12:03;;;;;;;7.20;4.60;;;16.20;66.10;;;;;;5072178;28;20452;-47
2022/09/23 13:14:31;;;;;;;6.63;4.50;;;16.20;66.20;;;;;;5056235;28;20782;-47
2022/09/23 13:16:59;;;;;;;4.00;3.70;;;16.20;66.20;;;;;;5060970;28;20460;-47
2022/09/23 13:19:26;;;;;;;4.90;4.00;;;16.30;66.30;;;;;;5080900;28;20522;-47
2022/09/23 13:21:52;;;;;;;3.97;3.53;;;16.20;66.40;;;;;;5081165;28;20550;-47
2022/09/23 13:24:21;;;;;;;4.57;4.17;;;16.20;66.60;;;;;;5066257;28;20815;-47
2022/09/23 13:26:59;;;;;;;4.57;4.27;;;16.20;66.60;;;;;;5078974;28;20527;-46
2022/09/23 13:29:36;;;;;;;4.67;4.17;;;16.20;66.50;;;;;;5074249;28;21046;-47
2022/09/23 13:32:04;;;;;;;7.90;3.60;;;16.20;66.60;;;;;;5075383;28;21099;-47
2022/09/23 13:34:33;;;;;;;5.23;4.40;;;16.20;66.70;;;;;;5081253;28;21084;-47
2022/09/23 13:37:44;;;;;;;5.23;4.73;;;16.20;66.60;;;;;;5063455;28;20473;-47
2022/09/23 13:40:23;;;;;;;5.80;3.60;;;16.20;66.40;;;;;;5043257;28;21411;-46
2022/09/23 13:43:07;;;;;;;4.37;3.70;;;16.20;66.20;;;;;;5076853;28;20469;-47